LEBLLELL

Guest
Details From LEBL - Barcelona - El Prat
To LELL - Sabadell
Flight Number -
Tags generated
Created
Modified
Stats Distance 14 nm / 25 km
Max Altitude 0 ft / 0 m
Waypoints 3
Social Downloads 2
Likes 0
Share VATSIM

Download

Looking for another format? Having issues loading an existing format? Contact us
Advertisement - Login to hide

Notes

Basic altitude profile: - Ascent Rate: 500ft/min - Ascent Speed: 54kts - Cruise Altitude: 25000ft - Cruise Speed: 75kts - Descent Rate: 800ft/min - Descent Speed: 70kts Options: - Use NATs: yes - Use PACOTS: yes - Use low airways: yes - Use high airways: no

Route

LEBL SLL LELL

ID Type Via Altitude Latitude Longitude Leg Dist Tot Dist Heading (true) Name
O LEBL APT - 0 ft / 0 m 41.29511˚ 2.08803˚ - 0 nm - Barcelona - El Prat
SLL VOR - 0 ft / 0 m 41.51985˚ 2.10975˚ 13 nm 13 nm 4° / 4° SABADELL VOR-DME
O LELL APT - 0 ft / 0 m 41.52098˚ 2.10491˚ 0 nm 13 nm 287° / 287° Sabadell

Altitude Profile

Advertisement - Login to hide

LEBL

Details ICAO LEBL (BCN)
Name Barcelona - El Prat
Region Spain
Timezone Europe/Madrid (UTC+1.0)
Stats Elevation 14 ft / 4 m (AMSL)
Location 41.295108° 2.088030°
Runways 3
Magnetic Variation 0.821° E

METAR

LEBL 181230Z 32009KT 9999 FEW040 09/02 Q1025 NOSIG

Decode

TAF

TAF LEBL 181100Z 1812/1912 31009KT 9999 FEW030 TX13/1812Z TN04/1906Z TEMPO 1812/1818 VRB03KT BECMG 1816/1818 02007KT SCT030 PROB30 TEMPO 1901/1904 05015G30KT

Decode

Departure Runways

ID Width Length Bearing (true) Bearing (mag) Surface Threshold Offset Overrun Length
02 148 ft / 45 m 8,343 ft / 2,543 m 18.93° 18.11° Asphalt 0 ft / 0 m 348 ft / 106 m
07L 197 ft / 60 m 10,983 ft / 3,348 m 65.49° 64.67° Asphalt 1,411 ft / 430 m 1,161 ft / 354 m
07R 197 ft / 60 m 8,718 ft / 2,657 m 65.49° 64.67° Asphalt 0 ft / 0 m 207 ft / 63 m
20 148 ft / 45 m 8,343 ft / 2,543 m 198.93° 198.11° Asphalt 0 ft / 0 m 200 ft / 61 m
25L 197 ft / 60 m 8,718 ft / 2,657 m 245.51° 244.69° Asphalt 0 ft / 0 m 203 ft / 62 m
25R 197 ft / 60 m 10,983 ft / 3,348 m 245.51° 244.69° Asphalt 0 ft / 0 m 522 ft / 159 m

LELL

Details ICAO LELL (QSA)
Name Sabadell
Region Spain
Timezone Europe/Madrid (UTC+1.0)
Stats Elevation 465 ft / 142 m (AMSL)
Location 41.520977° 2.104912°
Runways 1
Magnetic Variation 0.821° E

METAR

LELL 181230Z 26008KT 200V300 9999 FEW060 08/02 Q1024

Decode

TAF

TAF LELL 180800Z 1809/1909 VRB03KT 9999 FEW030 TX11/1813Z TN00/1906Z TEMPO 1810/1815 26010G20KT TEMPO 1818/1822 05006KT 3000 RA BKN030 BECMG 1823/1824 30005KT

Decode

Destination Runways

ID Width Length Bearing (true) Bearing (mag) Surface Threshold Offset Overrun Length
13 98 ft / 30 m 2,956 ft / 901 m 127.50° 126.68° Asphalt 0 ft / 0 m 0 ft / 0 m
31 98 ft / 30 m 2,956 ft / 901 m 307.50° 306.68° Asphalt 0 ft / 0 m 0 ft / 0 m

Popular Alternatives